Time;durP1;ratioP1;P1;durP2;ratioP2;P2;SDS_P1;SDS_P2;PMS_P1;PMS_P2;Temp;Humidity;BMP_temperature;BMP_pressure;BME280_temperature;BME280_humidity;BME280_pressure;Samples;Min_cycle;Max_cycle;Signal;HPM_P1;HPM_P2
2023/07/08 00:00:24;;;;;;;1.50;0.50;;;18.70;99.90;;;;;;5027478;28;20030;-81
2023/07/08 00:02:53;;;;;;;1.00;0.40;;;18.60;99.90;;;;;;5024767;28;20494;-80
2023/07/08 00:05:20;;;;;;;1.40;0.38;;;18.60;99.90;;;;;;5006715;28;20496;-79
2023/07/08 00:07:47;;;;;;;2.33;0.40;;;18.60;99.90;;;;;;5021100;28;20064;-79
2023/07/08 00:10:22;;;;;;;1.30;0.38;;;18.60;99.90;;;;;;5022409;28;20044;-80
2023/07/08 00:12:50;;;;;;;1.20;0.40;;;18.50;99.90;;;;;;5014234;28;20026;-79
2023/07/08 00:15:17;;;;;;;2.85;0.40;;;18.60;99.90;;;;;;5005641;28;20044;-78
2023/07/08 00:17:43;;;;;;;1.20;0.40;;;18.50;99.90;;;;;;5016944;28;20386;-80
2023/07/08 00:20:20;;;;;;;1.10;0.40;;;18.50;99.90;;;;;;5005663;28;20033;-79
2023/07/08 00:22:46;;;;;;;1.27;0.30;;;18.40;99.90;;;;;;5015087;28;20041;-80
2023/07/08 00:25:17;;;;;;;1.10;0.47;;;18.30;99.90;;;;;;5022293;28;20053;-79
2023/07/08 00:27:42;;;;;;;1.30;0.40;;;18.30;99.90;;;;;;5021184;28;20037;-78
2023/07/08 00:30:23;;;;;;;0.95;0.30;;;18.20;99.90;;;;;;5016665;28;20045;-79
2023/07/08 00:32:56;;;;;;;0.98;0.30;;;18.20;99.90;;;;;;5003255;28;20053;-80
2023/07/08 00:35:28;;;;;;;1.50;0.57;;;18.10;99.90;;;;;;5002827;28;20041;-78
2023/07/08 00:38:01;;;;;;;2.00;0.30;;;18.10;99.90;;;;;;5003615;28;20505;-80
2023/07/08 00:40:29;;;;;;;1.17;0.40;;;18.20;99.90;;;;;;5017600;28;20037;-78
2023/07/08 00:42:55;;;;;;;0.90;0.40;;;18.10;99.90;;;;;;5004125;28;20107;-80
2023/07/08 00:45:44;;;;;;;2.60;0.47;;;18.10;99.90;;;;;;5020494;28;20349;-80
2023/07/08 00:48:33;;;;;;;1.30;0.40;;;18.00;99.90;;;;;;5008124;28;20034;-79
2023/07/08 00:50:59;;;;;;;1.60;0.30;;;17.90;99.90;;;;;;5015650;28;20338;-80
2023/07/08 00:53:33;;;;;;;1.48;0.35;;;17.90;99.90;;;;;;5000862;28;20065;-81
2023/07/08 00:56:20;;;;;;;1.88;0.40;;;17.90;99.90;;;;;;5016849;28;20038;-80
2023/07/08 00:58:55;;;;;;;1.77;0.50;;;17.80;99.90;;;;;;5026019;28;20030;-80
2023/07/08 01:01:21;;;;;;;0.93;0.30;;;17.80;99.90;;;;;;4999801;28;20042;-79
2023/07/08 01:04:03;;;;;;;1.88;0.30;;;17.70;99.90;;;;;;5003348;28;20030;-80
2023/07/08 01:06:34;;;;;;;1.83;0.35;;;17.80;99.90;;;;;;4988799;28;20037;-80
2023/07/08 01:09:05;;;;;;;1.70;0.40;;;17.80;99.90;;;;;;4988483;28;20474;-80
2023/07/08 01:11:32;;;;;;;1.73;0.50;;;17.70;99.90;;;;;;4994020;28;20033;-80
2023/07/08 01:14:01;;;;;;;1.40;0.30;;;17.80;99.90;;;;;;4997924;28;20084;-80
2023/07/08 01:16:27;;;;;;;3.92;0.35;;;17.70;99.90;;;;;;4985285;28;20026;-81
2023/07/08 01:18:53;;;;;;;1.40;0.40;;;17.70;99.90;;;;;;4983666;28;20081;-80
2023/07/08 01:21:33;;;;;;;1.88;0.43;;;17.70;99.90;;;;;;5004357;28;20034;-79
2023/07/08 01:24:02;;;;;;;1.70;0.55;;;17.70;99.90;;;;;;5000144;28;20025;-79
2023/07/08 01:26:30;;;;;;;0.90;0.40;;;17.70;99.90;;;;;;4987267;28;20033;-81
2023/07/08 01:28:56;;;;;;;1.30;0.40;;;17.70;99.90;;;;;;4996763;28;20031;-81
2023/07/08 01:31:23;;;;;;;1.70;0.40;;;17.70;99.90;;;;;;4988197;28;20035;-81
2023/07/08 01:33:51;;;;;;;1.98;0.68;;;17.60;99.90;;;;;;4986427;28;20034;-81
2023/07/08 01:36:17;;;;;;;0.98;0.40;;;17.50;99.90;;;;;;5000821;28;20120;-81
2023/07/08 01:38:45;;;;;;;3.45;0.50;;;17.60;99.90;;;;;;5014092;28;20462;-81
2023/07/08 01:41:12;;;;;;;1.55;0.40;;;17.50;99.90;;;;;;5000163;28;20490;-80
2023/07/08 01:43:38;;;;;;;1.38;0.43;;;17.50;99.90;;;;;;4988074;28;20033;-80
2023/07/08 01:46:19;;;;;;;1.15;0.40;;;17.60;99.90;;;;;;4991437;28;20034;-81
2023/07/08 01:48:51;;;;;;;1.70;0.50;;;17.50;99.90;;;;;;5001048;28;20022;-80
2023/07/08 01:51:17;;;;;;;0.85;0.30;;;17.50;99.90;;;;;;4984698;28;20426;-81
2023/07/08 01:53:44;;;;;;;1.15;0.40;;;17.40;99.90;;;;;;5001295;28;20025;-80
2023/07/08 01:56:14;;;;;;;1.08;0.40;;;17.40;99.90;;;;;;5019994;28;20409;-80
2023/07/08 01:58:40;;;;;;;1.15;0.40;;;17.40;99.90;;;;;;4990528;28;20061;-80
2023/07/08 02:01:07;;;;;;;1.10;0.40;;;17.30;99.90;;;;;;5001284;28;20388;-80
2023/07/08 02:03:33;;;;;;;0.85;0.40;;;17.30;99.90;;;;;;5017945;28;20025;-81
2023/07/08 02:05:59;;;;;;;1.38;0.40;;;17.40;99.90;;;;;;5000881;28;20045;-80
2023/07/08 02:08:24;;;;;;;1.33;0.50;;;17.30;99.90;;;;;;5004224;28;20018;-81
2023/07/08 02:10:57;;;;;;;0.90;0.30;;;17.20;99.90;;;;;;4994789;28;20037;-79
2023/07/08 02:13:23;;;;;;;2.30;0.40;;;17.20;99.90;;;;;;5000804;28;20026;-80
2023/07/08 02:15:50;;;;;;;1.27;0.40;;;17.20;99.90;;;;;;5002177;28;20442;-81
2023/07/08 02:18:20;;;;;;;1.02;0.40;;;17.20;99.90;;;;;;5003688;28;20487;-80
2023/07/08 02:20:47;;;;;;;0.82;0.40;;;17.20;99.90;;;;;;5010539;28;20073;-79
2023/07/08 02:23:14;;;;;;;1.23;0.40;;;17.20;99.90;;;;;;5009416;28;20036;-79
2023/07/08 02:25:39;;;;;;;1.33;0.40;;;17.10;99.90;;;;;;4990535;28;20112;-81
2023/07/08 02:28:05;;;;;;;2.38;0.60;;;17.10;99.90;;;;;;4991902;28;20472;-80
2023/07/08 02:30:31;;;;;;;2.90;0.50;;;17.10;99.90;;;;;;5002004;28;20041;-79
2023/07/08 02:32:56;;;;;;;0.93;0.35;;;17.10;99.90;;;;;;5015937;28;20438;-81
2023/07/08 02:35:28;;;;;;;1.30;0.40;;;17.00;99.90;;;;;;4999840;28;20061;-79
2023/07/08 02:37:55;;;;;;;1.20;0.30;;;17.00;99.90;;;;;;4996574;28;20026;-80
2023/07/08 02:40:21;;;;;;;1.52;0.30;;;16.90;99.90;;;;;;5014729;28;20414;-80
2023/07/08 02:42:47;;;;;;;1.38;0.40;;;16.90;99.90;;;;;;5002455;28;20022;-81
2023/07/08 02:45:14;;;;;;;1.00;0.40;;;16.90;99.90;;;;;;4984776;28;20041;-79
2023/07/08 02:47:40;;;;;;;0.82;0.40;;;16.80;99.90;;;;;;4986695;28;20053;-80
2023/07/08 02:50:08;;;;;;;0.82;0.40;;;16.80;99.90;;;;;;5007519;28;20517;-80
2023/07/08 02:52:34;;;;;;;1.40;0.40;;;16.70;99.90;;;;;;4984760;28;20050;-78
2023/07/08 02:55:00;;;;;;;1.83;0.40;;;16.70;99.90;;;;;;5005957;28;20050;-78
2023/07/08 02:57:25;;;;;;;1.55;0.40;;;16.70;99.90;;;;;;5002093;28;20486;-79
2023/07/08 02:59:51;;;;;;;1.48;0.50;;;16.60;99.90;;;;;;5000136;28;20035;-80
2023/07/08 03:02:17;;;;;;;0.90;0.40;;;16.60;99.90;;;;;;5006996;28;20046;-79
2023/07/08 03:04:42;;;;;;;0.90;0.35;;;16.70;99.90;;;;;;5008418;28;20104;-78
2023/07/08 03:07:11;;;;;;;1.23;0.40;;;16.60;99.90;;;;;;4990796;28;20037;-80
2023/07/08 03:09:41;;;;;;;1.35;0.40;;;16.60;99.90;;;;;;4983455;28;20044;-81
2023/07/08 03:12:10;;;;;;;1.60;0.40;;;16.60;99.90;;;;;;5001913;28;20026;-80
2023/07/08 03:14:36;;;;;;;1.33;0.40;;;16.60;99.90;;;;;;5003422;28;20425;-81
2023/07/08 03:17:02;;;;;;;0.93;0.40;;;16.60;99.90;;;;;;4988678;28;20034;-81
2023/07/08 03:19:28;;;;;;;1.50;0.50;;;16.50;99.90;;;;;;4987455;28;20102;-81
2023/07/08 03:21:54;;;;;;;1.38;0.40;;;16.50;99.90;;;;;;5003669;28;20053;-81
2023/07/08 03:24:20;;;;;;;3.60;0.43;;;16.40;99.90;;;;;;4996995;28;20042;-80
2023/07/08 03:26:47;;;;;;;1.55;0.40;;;16.40;99.90;;;;;;4992200;28;20383;-80
2023/07/08 03:29:17;;;;;;;1.67;0.40;;;16.40;99.90;;;;;;4985730;28;20030;-80
2023/07/08 03:31:45;;;;;;;1.60;0.40;;;16.40;99.90;;;;;;5004928;28;20391;-80
2023/07/08 03:34:15;;;;;;;1.40;0.40;;;16.30;99.90;;;;;;5007008;28;20487;-80
2023/07/08 03:36:50;;;;;;;;;;;16.40;99.90;;;;;;5001140;28;20043;-83
2023/07/08 03:39:18;;;;;;;0.85;0.30;;;16.40;99.90;;;;;;4985174;28;19910;-79
2023/07/08 03:41:45;;;;;;;1.08;0.40;;;16.30;99.90;;;;;;4998071;28;20167;-79
2023/07/08 03:44:11;;;;;;;1.30;0.40;;;16.30;99.90;;;;;;5000162;28;20025;-80
2023/07/08 03:46:39;;;;;;;1.15;0.50;;;16.30;99.90;;;;;;5005652;28;20037;-80
2023/07/08 03:49:05;;;;;;;1.25;0.43;;;16.30;99.90;;;;;;5002955;28;20038;-80
2023/07/08 03:51:34;;;;;;;1.58;0.50;;;16.20;99.90;;;;;;4987200;28;20297;-79
2023/07/08 03:54:00;;;;;;;0.73;0.40;;;16.20;99.90;;;;;;4995943;28;20034;-80
2023/07/08 03:56:27;;;;;;;1.52;0.40;;;16.20;99.90;;;;;;5003498;28;20084;-80
2023/07/08 03:58:54;;;;;;;1.42;0.50;;;16.20;99.90;;;;;;4985221;28;20030;-81
2023/07/08 04:01:23;;;;;;;1.38;0.65;;;16.20;99.90;;;;;;4980941;28;20042;-80
2023/07/08 04:03:55;;;;;;;1.00;0.40;;;16.10;99.90;;;;;;4990226;28;20049;-80
2023/07/08 04:06:22;;;;;;;1.10;0.32;;;16.10;99.90;;;;;;4983922;28;20093;-78
2023/07/08 04:08:47;;;;;;;1.10;0.40;;;16.20;99.90;;;;;;4995563;28;20127;-79
2023/07/08 04:11:17;;;;;;;1.42;0.45;;;16.20;99.90;;;;;;4997996;28;20045;-77
2023/07/08 04:13:43;;;;;;;0.93;0.40;;;16.20;99.90;;;;;;4996455;28;20022;-80
2023/07/08 04:16:20;;;;;;;1.10;0.40;;;16.20;99.90;;;;;;4999452;28;20509;-79
2023/07/08 04:18:47;;;;;;;1.08;0.40;;;16.30;99.90;;;;;;5013799;28;20030;-80
2023/07/08 04:21:12;;;;;;;1.88;0.55;;;16.30;99.90;;;;;;4987156;28;20041;-78
2023/07/08 04:23:38;;;;;;;0.90;0.40;;;16.30;99.90;;;;;;4998582;28;20021;-79
2023/07/08 04:26:04;;;;;;;1.02;0.50;;;16.30;99.90;;;;;;5012949;28;20047;-79
2023/07/08 04:28:29;;;;;;;1.40;0.50;;;16.50;99.90;;;;;;4989943;28;20049;-79
2023/07/08 04:30:55;;;;;;;1.10;0.38;;;16.50;99.90;;;;;;5006077;28;20040;-76
2023/07/08 04:33:21;;;;;;;0.85;0.40;;;16.60;99.90;;;;;;4998555;28;20497;-79
2023/07/08 04:35:47;;;;;;;1.10;0.50;;;16.60;99.90;;;;;;4998921;28;20034;-77
2023/07/08 04:38:18;;;;;;;1.35;0.60;;;16.70;99.90;;;;;;4998474;28;20022;-77
2023/07/08 04:40:43;;;;;;;1.15;0.43;;;16.70;99.90;;;;;;5011421;28;20032;-78
2023/07/08 04:43:14;;;;;;;1.58;0.52;;;16.80;99.90;;;;;;4999828;28;20080;-78
2023/07/08 04:45:43;;;;;;;2.47;0.50;;;16.80;99.90;;;;;;5003155;28;20511;-78
2023/07/08 04:48:14;;;;;;;3.00;0.60;;;16.70;99.90;;;;;;4986864;28;20387;-80
2023/07/08 04:50:45;;;;;;;1.25;0.50;;;16.80;99.90;;;;;;5000969;28;20145;-80
2023/07/08 04:53:11;;;;;;;2.17;0.63;;;16.80;99.90;;;;;;4987815;28;20463;-81
2023/07/08 04:55:44;;;;;;;2.72;0.80;;;16.80;99.90;;;;;;5005564;28;20036;-81
2023/07/08 04:58:10;;;;;;;1.17;0.52;;;16.80;99.90;;;;;;5000891;28;20578;-80
2023/07/08 05:00:36;;;;;;;1.50;0.60;;;17.00;99.90;;;;;;5000081;28;20136;-80
2023/07/08 05:03:01;;;;;;;1.33;0.50;;;17.10;99.90;;;;;;4983925;28;20050;-81
2023/07/08 05:05:27;;;;;;;1.50;0.50;;;17.10;99.90;;;;;;4999510;28;20041;-80
2023/07/08 05:07:53;;;;;;;1.45;0.50;;;17.40;99.90;;;;;;4993216;28;20045;-80
2023/07/08 05:10:20;;;;;;;1.70;0.40;;;17.40;99.90;;;;;;4997217;28;20260;-81
2023/07/08 05:12:46;;;;;;;2.08;0.60;;;17.30;99.90;;;;;;4994901;28;20026;-80
2023/07/08 05:15:13;;;;;;;2.28;0.50;;;17.30;99.90;;;;;;4998522;28;20034;-81
2023/07/08 05:17:40;;;;;;;1.70;0.50;;;17.50;99.90;;;;;;4998010;28;20092;-81
2023/07/08 05:20:08;;;;;;;1.48;0.70;;;17.80;99.90;;;;;;4998289;28;20474;-80
2023/07/08 05:22:34;;;;;;;1.00;0.50;;;18.00;99.90;;;;;;4988301;28;20518;-80
2023/07/08 05:25:00;;;;;;;2.53;0.50;;;18.20;99.90;;;;;;4988674;28;20041;-79
2023/07/08 05:27:27;;;;;;;1.58;0.50;;;18.30;99.90;;;;;;4996532;28;20026;-79
2023/07/08 05:29:53;;;;;;;1.52;0.60;;;18.40;99.90;;;;;;5009778;28;20525;-79
2023/07/08 05:32:19;;;;;;;2.53;0.60;;;18.50;99.90;;;;;;4988258;28;20030;-80
2023/07/08 05:34:45;;;;;;;2.72;0.60;;;18.60;99.90;;;;;;5000289;28;20037;-79
2023/07/08 05:37:12;;;;;;;2.67;0.50;;;18.80;99.90;;;;;;5003287;28;20026;-79
2023/07/08 05:39:38;;;;;;;2.28;0.50;;;18.90;99.90;;;;;;4998431;28;20037;-79
2023/07/08 05:42:04;;;;;;;1.83;0.50;;;18.90;99.90;;;;;;4985829;28;20029;-80
2023/07/08 05:44:30;;;;;;;2.53;0.50;;;19.00;99.90;;;;;;5002618;28;20026;-78
2023/07/08 05:46:55;;;;;;;1.88;0.63;;;19.10;99.90;;;;;;4984023;28;20112;-80
2023/07/08 05:49:21;;;;;;;2.15;0.60;;;19.20;99.90;;;;;;4998233;28;20046;-81
2023/07/08 05:51:47;;;;;;;1.80;0.63;;;19.30;99.90;;;;;;4999843;28;20029;-79
2023/07/08 05:54:13;;;;;;;1.70;0.70;;;19.40;99.90;;;;;;4988515;28;20383;-79
2023/07/08 05:56:39;;;;;;;3.13;0.50;;;19.60;99.90;;;;;;4996089;28;20084;-81
2023/07/08 05:59:05;;;;;;;3.05;0.50;;;19.80;99.90;;;;;;4996202;28;20034;-79
2023/07/08 06:01:31;;;;;;;1.20;0.57;;;20.00;99.90;;;;;;4998626;28;20383;-80
2023/07/08 06:03:59;;;;;;;0.98;0.40;;;20.00;99.90;;;;;;4981822;28;20088;-78
2023/07/08 06:06:25;;;;;;;2.03;0.45;;;20.20;99.90;;;;;;4993666;28;20530;-80
2023/07/08 06:08:51;;;;;;;1.08;0.50;;;20.30;99.90;;;;;;4985257;28;20077;-80
2023/07/08 06:11:17;;;;;;;1.40;0.55;;;20.50;99.90;;;;;;5001937;28;20042;-80
2023/07/08 06:13:43;;;;;;;1.00;0.40;;;20.80;99.90;;;;;;4985820;28;20032;-79
2023/07/08 06:16:09;;;;;;;1.00;0.50;;;20.90;99.90;;;;;;4983200;28;20034;-79
2023/07/08 06:18:35;;;;;;;1.80;0.40;;;21.10;99.90;;;;;;4983747;28;20026;-80
2023/07/08 06:21:01;;;;;;;2.85;0.70;;;21.30;99.90;;;;;;5004102;28;20021;-81
2023/07/08 06:23:27;;;;;;;1.30;0.50;;;21.20;99.90;;;;;;4982379;28;20083;-81
2023/07/08 06:25:54;;;;;;;2.00;0.50;;;21.30;99.90;;;;;;4999357;28;20022;-81
2023/07/08 06:28:20;;;;;;;2.42;0.50;;;21.70;99.90;;;;;;4998264;28;20030;-81
2023/07/08 06:30:49;;;;;;;2.60;0.40;;;21.80;99.90;;;;;;4997162;28;20042;-81
2023/07/08 06:33:15;;;;;;;0.98;0.40;;;22.00;99.90;;;;;;4999427;28;20079;-82
2023/07/08 06:35:43;;;;;;;1.98;0.50;;;22.20;99.90;;;;;;4994278;28;20077;-79
2023/07/08 06:38:10;;;;;;;1.67;0.50;;;22.30;99.90;;;;;;4988993;28;20038;-81
2023/07/08 06:40:36;;;;;;;2.13;0.50;;;22.40;99.90;;;;;;5002333;28;20524;-82
2023/07/08 06:43:02;;;;;;;2.17;0.40;;;22.50;99.90;;;;;;4991602;28;20038;-81
2023/07/08 06:45:34;;;;;;;2.00;0.40;;;22.50;99.90;;;;;;4990850;28;20555;-81
2023/07/08 06:48:00;;;;;;;1.75;0.50;;;22.70;99.90;;;;;;4988373;28;20326;-80
2023/07/08 06:50:26;;;;;;;2.75;0.50;;;22.80;99.90;;;;;;4990562;28;20077;-80
2023/07/08 06:52:51;;;;;;;1.65;0.45;;;23.00;99.90;;;;;;5004313;28;20030;-80
2023/07/08 06:55:22;;;;;;;1.20;0.50;;;23.00;99.90;;;;;;4987763;28;20049;-80
2023/07/08 06:57:48;;;;;;;1.77;0.40;;;23.10;99.90;;;;;;4981670;28;20463;-80
2023/07/08 07:00:14;;;;;;;3.47;0.50;;;23.30;99.90;;;;;;4980026;28;20080;-80
2023/07/08 07:02:39;;;;;;;1.40;0.47;;;23.00;99.90;;;;;;4995395;28;20514;-80
2023/07/08 07:05:06;;;;;;;1.10;0.40;;;23.20;99.90;;;;;;5001553;28;20042;-80
2023/07/08 07:07:34;;;;;;;2.22;0.40;;;23.40;99.90;;;;;;4995046;28;20026;-80
2023/07/08 07:09:59;;;;;;;2.75;0.50;;;23.50;99.90;;;;;;4998466;28;20073;-80
2023/07/08 07:12:26;;;;;;;1.20;0.40;;;23.50;99.90;;;;;;4994033;28;20068;-80
2023/07/08 07:14:52;;;;;;;1.55;0.65;;;23.80;99.90;;;;;;4992230;28;20029;-80
2023/07/08 07:17:19;;;;;;;1.50;0.50;;;23.80;99.90;;;;;;4992598;28;20037;-80
2023/07/08 07:19:45;;;;;;;1.90;0.50;;;24.10;99.90;;;;;;4996612;28;20046;-80
2023/07/08 07:22:10;;;;;;;1.20;0.50;;;24.30;99.90;;;;;;4976730;28;20029;-80
2023/07/08 07:24:36;;;;;;;2.22;0.50;;;24.40;99.90;;;;;;4992490;28;20095;-79
2023/07/08 07:27:02;;;;;;;2.05;0.63;;;24.30;99.90;;;;;;4992564;28;20149;-79
2023/07/08 07:29:27;;;;;;;2.15;0.40;;;24.40;99.90;;;;;;4985020;28;20129;-78
2023/07/08 07:31:54;;;;;;;2.00;0.43;;;24.70;99.90;;;;;;4994721;28;20019;-80
2023/07/08 07:34:20;;;;;;;1.52;0.40;;;25.10;99.90;;;;;;4979698;28;20069;-80
2023/07/08 07:36:46;;;;;;;1.05;0.40;;;25.30;99.90;;;;;;4994061;28;20468;-80
2023/07/08 07:39:11;;;;;;;2.53;0.50;;;25.20;99.90;;;;;;4979464;28;20513;-80
2023/07/08 07:41:37;;;;;;;1.20;0.50;;;25.10;99.90;;;;;;4983933;28;20037;-80
2023/07/08 07:44:03;;;;;;;1.20;0.50;;;25.10;99.90;;;;;;5000526;28;20088;-80
2023/07/08 07:46:29;;;;;;;2.70;0.57;;;25.50;99.90;;;;;;4995005;28;20482;-80
2023/07/08 07:48:54;;;;;;;2.05;0.50;;;25.60;99.90;;;;;;4997342;28;20084;-80
2023/07/08 07:51:20;;;;;;;1.20;0.50;;;25.80;99.90;;;;;;4981676;28;20073;-85
2023/07/08 07:53:46;;;;;;;1.67;0.50;;;25.60;99.90;;;;;;4983905;28;20030;-81
2023/07/08 07:56:12;;;;;;;1.27;0.50;;;26.10;99.90;;;;;;4982000;28;20084;-80
2023/07/08 07:58:37;;;;;;;1.45;0.50;;;26.30;99.90;;;;;;4999619;28;20034;-81
2023/07/08 08:01:03;;;;;;;2.33;0.50;;;26.40;99.90;;;;;;5000306;28;20054;-80
2023/07/08 08:03:29;;;;;;;1.73;0.40;;;26.40;99.90;;;;;;4993039;28;20113;-80
2023/07/08 08:05:55;;;;;;;1.30;0.52;;;26.50;99.90;;;;;;4998349;28;20422;-80
2023/07/08 08:08:22;;;;;;;1.13;0.47;;;26.40;99.90;;;;;;4993716;28;20030;-81
2023/07/08 08:10:48;;;;;;;1.45;0.50;;;26.70;99.90;;;;;;5009030;28;20046;-86
2023/07/08 08:13:13;;;;;;;1.90;0.60;;;26.70;99.90;;;;;;4977822;28;20022;-81
2023/07/08 08:15:39;;;;;;;1.35;0.57;;;26.60;99.90;;;;;;4997865;28;20034;-81
2023/07/08 08:18:05;;;;;;;1.27;0.50;;;26.90;99.90;;;;;;4985577;28;20170;-80
2023/07/08 08:20:31;;;;;;;2.10;0.60;;;26.70;99.90;;;;;;4983010;28;20402;-81
2023/07/08 08:22:56;;;;;;;1.40;0.50;;;27.00;99.90;;;;;;4981718;28;20026;-79
2023/07/08 08:25:23;;;;;;;0.77;0.40;;;27.30;99.90;;;;;;4996854;28;20041;-80
2023/07/08 08:27:50;;;;;;;1.05;0.40;;;27.60;99.90;;;;;;4995640;28;20588;-79
2023/07/08 08:30:15;;;;;;;0.98;0.45;;;27.60;99.90;;;;;;4998551;28;20060;-81
2023/07/08 08:32:41;;;;;;;2.38;0.50;;;27.40;99.90;;;;;;5000234;28;20029;-81
2023/07/08 08:35:07;;;;;;;1.67;0.60;;;27.40;99.90;;;;;;4983220;28;20033;-81
2023/07/08 08:37:33;;;;;;;1.70;0.60;;;27.50;99.90;;;;;;4978326;28;20030;-81
2023/07/08 08:39:59;;;;;;;2.72;0.60;;;27.70;99.90;;;;;;4981293;28;20097;-80
2023/07/08 08:42:34;;;;;;;5.05;0.90;;;27.60;99.90;;;;;;4978994;28;20045;-80
2023/07/08 08:45:02;;;;;;;2.00;0.70;;;28.00;99.90;;;;;;4979810;28;20033;-81
2023/07/08 08:47:36;;;;;;;1.27;0.60;;;28.50;99.90;;;;;;4979622;28;20027;-82
2023/07/08 08:50:11;;;;;;;2.50;0.55;;;28.50;99.90;;;;;;4994731;28;20050;-82
2023/07/08 08:52:41;;;;;;;1.58;0.50;;;28.40;99.90;;;;;;4978029;28;20094;-84
2023/07/08 08:55:15;;;;;;;1.70;0.63;;;28.70;99.90;;;;;;4983170;28;20355;-82
2023/07/08 08:57:56;;;;;;;1.48;0.60;;;28.40;99.90;;;;;;4977473;28;20030;-81
2023/07/08 09:00:54;;;;;;;1.65;0.65;;;28.40;99.90;;;;;;4979990;28;20076;-81
2023/07/08 09:03:34;;;;;;;1.23;0.50;;;28.80;99.90;;;;;;4997412;28;20044;-82
2023/07/08 09:06:00;;;;;;;1.73;0.60;;;28.80;99.90;;;;;;4992515;28;20080;-80
2023/07/08 09:08:32;;;;;;;2.47;0.60;;;29.00;99.90;;;;;;4993349;28;20141;-80
2023/07/08 09:11:03;;;;;;;1.48;0.70;;;29.60;99.90;;;;;;4992193;28;20049;-81
2023/07/08 09:13:35;;;;;;;1.30;0.52;;;29.60;99.90;;;;;;4991135;28;20707;-80
2023/07/08 09:16:25;;;;;;;3.20;0.65;;;29.70;99.90;;;;;;4982308;28;20026;-81
2023/07/08 09:18:59;;;;;;;1.52;0.55;;;29.50;99.90;;;;;;5007373;28;20394;-81
2023/07/08 09:21:40;;;;;;;1.70;0.60;;;30.00;99.90;;;;;;4977899;28;20476;-81
2023/07/08 09:24:15;;;;;;;1.35;0.55;;;30.00;99.90;;;;;;4994408;28;20100;-82
2023/07/08 09:26:41;;;;;;;2.17;1.02;;;30.20;99.90;;;;;;4993632;28;20049;-80
2023/07/08 09:29:10;;;;;;;1.25;0.52;;;29.80;99.90;;;;;;4983466;28;20445;-80
2023/07/08 09:31:41;;;;;;;2.20;0.70;;;30.20;99.90;;;;;;4991034;28;20065;-81
2023/07/08 09:34:24;;;;;;;1.88;0.90;;;30.20;99.90;;;;;;4993356;28;20026;-80
2023/07/08 09:36:51;;;;;;;1.70;0.60;;;30.20;99.90;;;;;;4994651;28;20038;-80
2023/07/08 09:39:20;;;;;;;3.20;0.60;;;30.30;99.90;;;;;;4989559;28;20053;-80
2023/07/08 09:41:47;;;;;;;2.60;0.63;;;30.30;99.90;;;;;;4994127;28;20321;-81
2023/07/08 09:44:17;;;;;;;2.05;0.90;;;30.70;99.90;;;;;;4991863;28;20022;-81
2023/07/08 09:46:43;;;;;;;2.00;0.90;;;30.70;99.90;;;;;;4999410;28;20040;-81
2023/07/08 09:49:31;;;;;;;2.03;0.68;;;30.80;99.90;;;;;;4995378;28;20433;-81
2023/07/08 09:51:57;;;;;;;2.28;0.80;;;31.00;99.90;;;;;;4988178;28;20121;-81
2023/07/08 09:54:24;;;;;;;2.85;0.82;;;30.90;99.90;;;;;;4983611;28;20524;-81
2023/07/08 09:57:11;;;;;;;1.92;0.70;;;31.10;99.90;;;;;;4989332;28;20438;-81
2023/07/08 09:59:48;;;;;;;3.15;0.80;;;31.30;99.90;;;;;;4990222;28;20027;-81
2023/07/08 10:02:46;;;;;;;2.45;0.80;;;31.50;99.90;;;;;;4976859;28;20061;-81
2023/07/08 10:05:13;;;;;;;1.50;0.70;;;31.50;99.90;;;;;;4962637;28;20131;-82
2023/07/08 10:07:39;;;;;;;2.10;0.85;;;31.40;99.90;;;;;;5001717;28;20053;-82
2023/07/08 10:10:12;;;;;;;2.03;0.80;;;31.70;99.80;;;;;;5002940;28;20396;-82
2023/07/08 10:12:42;;;;;;;2.03;0.70;;;31.70;99.20;;;;;;4985392;28;20379;-82
2023/07/08 10:15:20;;;;;;;1.77;0.60;;;31.40;99.40;;;;;;5002240;28;20045;-82
2023/07/08 10:17:46;;;;;;;1.80;1.00;;;31.60;99.90;;;;;;5001787;28;20087;-80
2023/07/08 10:20:13;;;;;;;1.60;0.70;;;31.80;99.60;;;;;;5002662;28;20045;-82
2023/07/08 10:23:02;;;;;;;1.65;0.90;;;31.70;99.30;;;;;;4984716;28;20029;-80
2023/07/08 10:25:50;;;;;;;1.73;0.80;;;31.70;99.60;;;;;;5002015;28;20534;-81
2023/07/08 10:28:26;;;;;;;2.00;0.70;;;31.90;99.90;;;;;;4989654;28;20037;-82
2023/07/08 10:31:25;;;;;;;1.90;1.00;;;32.20;99.60;;;;;;5001006;28;20612;-81
2023/07/08 10:34:26;;;;;;;2.50;0.80;;;31.90;98.70;;;;;;5002241;28;20107;-80
2023/07/08 10:37:04;;;;;;;1.52;0.70;;;32.30;99.40;;;;;;4951774;28;20668;-81
2023/07/08 10:39:51;;;;;;;4.07;1.08;;;32.20;99.80;;;;;;4969613;28;20128;-80
2023/07/08 10:42:43;;;;;;;1.60;0.88;;;32.10;99.60;;;;;;4986521;28;20048;-80
2023/07/08 10:45:34;;;;;;;1.75;0.80;;;32.30;98.20;;;;;;4985027;28;20035;-80
2023/07/08 10:48:12;;;;;;;1.88;0.80;;;32.70;99.20;;;;;;4969190;28;20050;-81
2023/07/08 10:50:55;;;;;;;2.00;0.80;;;32.80;98.30;;;;;;4952705;28;20135;-80
2023/07/08 10:54:16;;;;;;;1.73;0.88;;;33.10;98.70;;;;;;4952483;28;20486;-81
2023/07/08 10:56:51;;;;;;;3.30;0.80;;;32.90;98.40;;;;;;4927469;28;20039;-80
2023/07/08 10:59:23;;;;;;;2.13;0.80;;;32.50;98.10;;;;;;4926710;29;20075;-81
2023/07/08 11:02:22;;;;;;;2.08;0.80;;;32.60;98.50;;;;;;4927138;29;20204;-81
2023/07/08 11:04:53;;;;;;;2.55;0.80;;;33.00;98.60;;;;;;4893986;29;20048;-81
2023/07/08 11:07:46;;;;;;;2.65;0.90;;;33.00;98.50;;;;;;4925210;29;20047;-80
2023/07/08 11:10:29;;;;;;;1.60;0.77;;;33.30;97.60;;;;;;4920496;29;20039;-81
2023/07/08 11:13:01;;;;;;;3.47;0.90;;;33.20;98.10;;;;;;4937964;28;20089;-81
2023/07/08 11:15:33;;;;;;;1.73;0.80;;;33.00;98.30;;;;;;4946522;28;20030;-82
2023/07/08 11:18:03;;;;;;;2.47;1.10;;;33.10;97.40;;;;;;4945207;28;20038;-80
2023/07/08 11:20:53;;;;;;;1.67;0.70;;;32.70;97.70;;;;;;4945602;28;20047;-81
2023/07/08 11:23:40;;;;;;;2.58;0.70;;;32.80;97.80;;;;;;4946344;28;20054;-81
2023/07/08 11:26:23;;;;;;;3.85;0.85;;;33.00;97.80;;;;;;4943770;28;20070;-81
2023/07/08 11:28:51;;;;;;;1.98;0.70;;;33.10;97.60;;;;;;4946435;28;20053;-81
2023/07/08 11:31:17;;;;;;;1.60;0.80;;;33.30;97.60;;;;;;4991054;28;20088;-80
2023/07/08 11:33:45;;;;;;;2.50;0.60;;;33.50;97.20;;;;;;4996723;28;20499;-81
2023/07/08 11:36:13;;;;;;;2.07;0.90;;;33.20;96.90;;;;;;4991180;28;20029;-81
2023/07/08 11:38:52;;;;;;;2.50;0.88;;;33.00;96.80;;;;;;4999301;28;20033;-80
2023/07/08 11:41:21;;;;;;;2.05;0.90;;;33.20;97.60;;;;;;5001336;28;20045;-81
2023/07/08 11:43:51;;;;;;;2.85;1.30;;;32.90;96.00;;;;;;4994251;28;20019;-81
2023/07/08 11:46:25;;;;;;;1.88;0.82;;;32.80;97.30;;;;;;4977769;28;20078;-81
2023/07/08 11:49:15;;;;;;;1.77;0.90;;;33.00;96.90;;;;;;4992423;28;20030;-82
2023/07/08 11:51:45;;;;;;;2.60;0.75;;;33.20;97.00;;;;;;4990995;28;20038;-82
2023/07/08 11:54:21;;;;;;;1.90;0.75;;;33.80;97.50;;;;;;4995081;28;20497;-82
2023/07/08 11:56:57;;;;;;;2.13;0.98;;;33.60;96.60;;;;;;4994535;28;20387;-82
2023/07/08 11:59:25;;;;;;;3.78;0.80;;;33.50;97.80;;;;;;5007893;28;20038;-81
2023/07/08 12:01:50;;;;;;;2.20;0.90;;;33.40;97.30;;;;;;4993412;28;20086;-82
2023/07/08 12:04:29;;;;;;;3.28;0.82;;;33.50;97.80;;;;;;5000134;28;20026;-82
2023/07/08 12:07:40;;;;;;;3.35;1.02;;;33.80;96.90;;;;;;4990803;28;20496;-82
2023/07/08 12:10:15;;;;;;;2.38;0.75;;;34.20;97.20;;;;;;4986984;28;20053;-82
2023/07/08 12:12:43;;;;;;;1.95;0.82;;;33.90;96.80;;;;;;4993297;28;20038;-81
2023/07/08 12:15:26;;;;;;;2.08;0.85;;;33.70;96.90;;;;;;4991234;28;20806;-82
2023/07/08 12:17:56;;;;;;;1.83;0.80;;;33.30;97.40;;;;;;4991426;28;20478;-81
2023/07/08 12:20:27;;;;;;;2.65;0.80;;;33.90;97.50;;;;;;4992002;28;20065;-81
2023/07/08 12:22:52;;;;;;;2.83;0.75;;;33.90;96.80;;;;;;4991247;28;20033;-81
2023/07/08 12:25:22;;;;;;;2.00;0.80;;;34.10;96.90;;;;;;4992566;28;20038;-82
2023/07/08 12:27:48;;;;;;;1.88;0.90;;;33.90;95.80;;;;;;4994489;28;20022;-82
2023/07/08 12:30:15;;;;;;;2.70;0.80;;;33.90;96.40;;;;;;4993203;28;20041;-82
2023/07/08 12:32:42;;;;;;;2.40;0.95;;;33.60;96.30;;;;;;4991959;28;20485;-82
2023/07/08 12:35:26;;;;;;;1.98;0.80;;;33.90;97.00;;;;;;4995712;28;20438;-82
2023/07/08 12:37:56;;;;;;;1.77;0.80;;;33.50;97.50;;;;;;4994059;28;20406;-81
2023/07/08 12:40:23;;;;;;;3.40;0.70;;;33.90;96.00;;;;;;4990632;28;20107;-83
2023/07/08 12:42:49;;;;;;;1.95;0.75;;;33.80;96.80;;;;;;4993199;28;20042;-80
2023/07/08 12:45:19;;;;;;;2.70;0.80;;;33.50;95.80;;;;;;4992556;28;20115;-82
2023/07/08 12:47:45;;;;;;;2.00;1.00;;;33.60;96.00;;;;;;4998009;28;20034;-81
2023/07/08 12:50:12;;;;;;;2.70;0.90;;;34.20;96.00;;;;;;4989969;28;20021;-82
2023/07/08 12:52:39;;;;;;;2.28;0.90;;;34.00;95.10;;;;;;4990880;28;20033;-82
2023/07/08 12:55:08;;;;;;;1.77;0.68;;;33.80;93.80;;;;;;4993008;28;20034;-82
2023/07/08 12:57:34;;;;;;;2.05;0.70;;;33.80;94.10;;;;;;4990236;28;20497;-82
2023/07/08 13:00:01;;;;;;;3.40;0.93;;;33.80;94.70;;;;;;4995160;28;20038;-82
2023/07/08 13:02:30;;;;;;;2.70;0.95;;;33.90;95.20;;;;;;4992038;28;20042;-82